Time;durP1;ratioP1;P1;durP2;ratioP2;P2;SDS_P1;SDS_P2;PMS_P1;PMS_P2;Temp;Humidity;BMP_temperature;BMP_pressure;BME280_temperature;BME280_humidity;BME280_pressure;Samples;Min_cycle;Max_cycle;Signal;HPM_P1;HPM_P2
2023/12/11 00:00:15;;;;;;;7.30;3.97;;;;;;;-3.39;100.00;99312.03;5113931;28;20104;-68
2023/12/11 00:02:42;;;;;;;7.32;4.28;;;;;;;-3.87;100.00;99308.78;5116111;28;20062;-73
2023/12/11 00:05:08;;;;;;;8.23;3.83;;;;;;;-3.73;100.00;99299.19;5113774;28;20059;-71
2023/12/11 00:07:35;;;;;;;10.45;4.65;;;;;;;-4.03;100.00;99291.91;5118681;28;20113;-68
2023/12/11 00:10:02;;;;;;;10.27;3.85;;;;;;;-3.91;100.00;99295.13;5117314;28;20076;-65
2023/12/11 00:12:28;;;;;;;8.75;3.75;;;;;;;-4.01;100.00;99281.72;5119764;28;20048;-74
2023/12/11 00:14:55;;;;;;;3.45;2.42;;;;;;;-4.11;100.00;99273.69;5117170;28;20060;-65
2023/12/11 00:17:21;;;;;;;7.63;3.17;;;;;;;-3.75;100.00;99271.03;5119757;28;20087;-69
2023/12/11 00:19:47;;;;;;;5.82;3.75;;;;;;;-4.35;100.00;99282.22;5117099;28;20063;-73
2023/12/11 00:22:14;;;;;;;9.23;4.45;;;;;;;-4.07;100.00;99291.63;5117127;28;20342;-69
2023/12/11 00:24:40;;;;;;;7.75;4.05;;;;;;;-3.88;100.00;99289.25;5119207;28;20401;-66
2023/12/11 00:27:07;;;;;;;6.32;2.95;;;;;;;-4.34;100.00;99277.66;5117103;28;20429;-73
2023/12/11 00:29:33;;;;;;;7.72;3.25;;;;;;;-4.39;100.00;99270.44;5119509;28;20323;-64
2023/12/11 00:32:00;;;;;;;8.13;4.60;;;;;;;-4.22;100.00;99272.06;5117137;28;20075;-73
2023/12/11 00:34:26;;;;;;;12.07;5.80;;;;;;;-3.76;100.00;99258.72;5119349;28;20062;-69
2023/12/11 00:36:52;;;;;;;6.68;4.10;;;;;;;-4.17;100.00;99259.47;5116864;28;20063;-66
2023/12/11 00:39:19;;;;;;;7.07;3.90;;;;;;;-3.49;100.00;99245.03;5119296;28;20051;-73
2023/12/11 00:41:45;;;;;;;6.55;3.40;;;;;;;-4.06;100.00;99268.34;5116818;28;20059;-65
2023/12/11 00:44:12;;;;;;;9.02;4.18;;;;;;;-4.15;100.00;99265.38;5119216;28;20108;-68
2023/12/11 00:46:39;;;;;;;6.45;4.18;;;;;;;-3.89;100.00;99255.50;5116735;28;20098;-71
2023/12/11 00:49:05;;;;;;;5.65;3.40;;;;;;;-4.13;100.00;99263.25;5117339;28;20051;-64
2023/12/11 00:51:31;;;;;;;8.57;3.90;;;;;;;-3.92;100.00;99248.00;5118410;28;20047;-69
2023/12/11 00:53:58;;;;;;;8.48;4.15;;;;;;;-3.86;100.00;99241.59;5116569;28;20113;-68
2023/12/11 00:56:24;;;;;;;6.95;3.83;;;;;;;-3.98;100.00;99248.25;5118857;28;20078;-62
2023/12/11 00:58:50;;;;;;;11.50;5.20;;;;;;;-3.62;100.00;99238.34;5116718;28;20375;-73
2023/12/11 01:01:17;;;;;;;15.05;4.28;;;;;;;-3.74;100.00;99235.94;5119040;28;20051;-67
2023/12/11 01:03:44;;;;;;;10.85;4.70;;;;;;;-3.51;100.00;99233.78;5116502;28;20152;-69
2023/12/11 01:06:10;;;;;;;7.00;3.50;;;;;;;-3.97;100.00;99239.16;5118995;28;20051;-72
2023/12/11 01:08:38;;;;;;;7.43;2.78;;;;;;;-4.21;100.00;99236.19;5116491;28;20087;-69
2023/12/11 01:11:05;;;;;;;6.32;3.90;;;;;;;-4.23;100.00;99223.09;5118525;28;20385;-70
2023/12/11 01:13:31;;;;;;;2.58;2.00;;;;;;;-4.23;100.00;99222.25;5116254;28;20055;-71
2023/12/11 01:15:58;;;;;;;6.90;3.15;;;;;;;-4.10;100.00;99224.41;5118468;28;20051;-74
2023/12/11 01:18:25;;;;;;;9.45;3.13;;;;;;;-3.97;100.00;99218.53;5115987;28;20421;-69
2023/12/11 01:20:52;;;;;;;5.25;2.95;;;;;;;-4.10;100.00;99216.38;5116439;28;20060;-66
2023/12/11 01:23:19;;;;;;;8.50;4.30;;;;;;;-3.98;100.00;99211.56;5118251;28;20048;-73
2023/12/11 01:25:45;;;;;;;7.63;3.90;;;;;;;-3.75;100.00;99214.78;5116136;28;20311;-66
2023/12/11 01:28:11;;;;;;;5.20;3.42;;;;;;;-3.50;100.00;99213.94;5118661;28;20333;-74
2023/12/11 01:30:38;;;;;;;7.75;3.67;;;;;;;-3.61;100.00;99211.28;5116184;28;20117;-64
2023/12/11 01:33:04;;;;;;;10.70;4.57;;;;;;;-3.69;100.00;99227.09;5118374;28;20047;-69
2023/12/11 01:35:33;;;;;;;5.15;3.13;;;;;;;-3.75;100.00;99212.09;5115989;28;20059;-71
2023/12/11 01:38:00;;;;;;;10.00;4.25;;;;;;;-3.97;100.00;99221.22;5118472;28;20376;-73
2023/12/11 01:40:26;;;;;;;6.07;3.33;;;;;;;-3.65;100.00;99214.78;5115946;28;20059;-72
2023/12/11 01:42:53;;;;;;;11.52;4.35;;;;;;;-3.81;100.00;99211.31;5118469;28;20322;-69
2023/12/11 01:45:19;;;;;;;7.95;3.47;;;;;;;-3.94;100.00;99211.84;5115629;28;20082;-66
2023/12/11 01:47:45;;;;;;;4.55;2.72;;;;;;;-3.79;100.00;99215.31;5116077;28;20055;-73
2023/12/11 01:50:13;;;;;;;7.65;3.28;;;;;;;-3.96;100.00;99208.66;5117993;28;20055;-68
2023/12/11 01:52:40;;;;;;;4.88;2.63;;;;;;;-3.89;100.00;99198.47;5115705;28;20055;-66
2023/12/11 01:55:07;;;;;;;4.95;2.92;;;;;;;-3.89;100.00;99198.47;5117964;28;20070;-74
2023/12/11 01:57:34;;;;;;;7.65;3.42;;;;;;;-3.67;100.00;99198.94;5115596;28;20058;-68
2023/12/11 02:00:04;;;;;;;8.88;4.68;;;;;;;-3.57;100.00;99190.09;5117941;28;20048;-69
2023/12/11 02:02:31;;;;;;;7.40;3.60;;;;;;;-3.57;100.00;99192.78;5115451;28;20055;-66
2023/12/11 02:04:58;;;;;;;6.65;2.75;;;;;;;-3.67;100.00;99195.47;5117980;28;20325;-65
2023/12/11 02:07:24;;;;;;;8.25;4.20;;;;;;;-3.56;100.00;99189.84;5115444;28;20059;-72
2023/12/11 02:09:51;;;;;;;8.85;3.58;;;;;;;-3.44;100.00;99178.81;5117499;28;20051;-68
2023/12/11 02:12:18;;;;;;;7.68;4.15;;;;;;;-3.55;100.00;99172.69;5115320;28;20052;-69
2023/12/11 02:14:44;;;;;;;5.70;3.35;;;;;;;-3.61;100.00;99170.28;5115238;28;20056;-71
2023/12/11 02:17:10;;;;;;;6.50;3.53;;;;;;;-3.99;100.00;99166.34;5117497;28;20063;-65
2023/12/11 02:19:37;;;;;;;9.10;4.72;;;;;;;-3.95;100.00;99152.13;5115480;28;20398;-69
2023/12/11 02:22:04;;;;;;;6.38;3.30;;;;;;;-4.08;100.00;99150.00;5117518;28;20409;-74
2023/12/11 02:24:33;;;;;;;7.15;4.20;;;;;;;-3.91;100.00;99144.34;5115104;28;20055;-68
2023/12/11 02:27:01;;;;;;;5.03;3.05;;;;;;;-3.98;100.00;99133.13;5117672;28;20062;-72
2023/12/11 02:29:27;;;;;;;8.65;4.07;;;;;;;-3.46;100.00;99130.06;5115028;28;20477;-63
2023/12/11 02:31:53;;;;;;;5.88;3.20;;;;;;;-4.17;100.00;99127.50;5117652;28;20302;-68
2023/12/11 02:34:20;;;;;;;4.10;2.60;;;;;;;-4.08;100.00;99123.22;5115028;28;20333;-72
2023/12/11 02:36:47;;;;;;;3.38;2.53;;;;;;;-4.13;100.00;99110.66;5117637;28;20055;-64
2023/12/11 02:39:14;;;;;;;7.55;3.60;;;;;;;-3.94;100.00;99115.44;5114921;28;20413;-73
2023/12/11 02:41:40;;;;;;;6.85;3.53;;;;;;;-4.13;100.00;99101.78;5115003;28;20052;-72
2023/12/11 02:44:07;;;;;;;5.50;3.55;;;;;;;-4.11;100.00;99105.00;5100134;28;20409;-64
2023/12/11 02:46:34;;;;;;;3.70;2.55;;;;;;;-3.97;100.00;99103.38;5115160;28;20052;-73
2023/12/11 02:49:00;;;;;;;7.22;2.75;;;;;;;-4.13;100.00;99091.91;5117135;28;20059;-65
2023/12/11 02:51:26;;;;;;;7.93;2.50;;;;;;;-3.94;100.00;99088.66;5115108;28;20406;-66
2023/12/11 02:53:53;;;;;;;3.42;2.53;;;;;;;-4.11;100.00;99094.31;5117138;28;20097;-74
2023/12/11 02:56:19;;;;;;;4.57;2.78;;;;;;;-3.89;100.00;99092.13;5114870;28;20059;-65
2023/12/11 02:58:45;;;;;;;4.15;2.70;;;;;;;-4.08;100.00;99102.59;5117220;28;20067;-69
2023/12/11 03:01:13;;;;;;;3.40;2.15;;;;;;;-4.01;100.00;99096.97;5114761;28;20056;-72
2023/12/11 03:03:39;;;;;;;3.08;2.10;;;;;;;-3.87;100.00;99081.91;5117020;28;20055;-67
2023/12/11 03:06:06;;;;;;;1.73;1.45;;;;;;;-3.96;100.00;99101.53;5114626;28;20094;-71
2023/12/11 03:08:32;;;;;;;4.55;2.95;;;;;;;-3.71;100.00;99090.72;5116336;28;20062;-65
2023/12/11 03:10:59;;;;;;;4.97;2.65;;;;;;;-3.79;100.00;99094.78;5115520;28;20051;-69
2023/12/11 03:13:25;;;;;;;3.45;2.67;;;;;;;-3.62;100.00;99088.31;5114390;28;20063;-74
2023/12/11 03:15:51;;;;;;;3.78;2.58;;;;;;;-3.78;100.00;99091.00;5116695;28;20048;-65
2023/12/11 03:18:18;;;;;;;3.95;2.20;;;;;;;-3.64;100.00;99101.16;5114640;28;20341;-69
2023/12/11 03:20:45;;;;;;;2.97;2.28;;;;;;;-3.54;100.00;99101.13;5116922;28;20364;-69
2023/12/11 03:23:11;;;;;;;4.43;2.65;;;;;;;-3.24;100.00;99110.91;5114319;28;20055;-67
2023/12/11 03:25:38;;;;;;;4.28;2.55;;;;;;;-3.47;100.00;99111.53;5116709;28;20051;-74
2023/12/11 03:28:04;;;;;;;4.45;2.63;;;;;;;-3.44;100.00;99109.13;5114423;28;20055;-69
2023/12/11 03:30:30;;;;;;;5.72;3.13;;;;;;;-3.34;100.00;99110.97;5116872;28;20083;-63
2023/12/11 03:32:57;;;;;;;5.07;2.78;;;;;;;-3.24;100.00;99120.84;5114202;28;20063;-73
2023/12/11 03:35:24;;;;;;;3.72;2.13;;;;;;;-3.56;100.00;99114.81;5116840;28;20055;-69
2023/12/11 03:37:50;;;;;;;7.68;3.13;;;;;;;-3.11;100.00;99122.94;5114137;28;20052;-63
2023/12/11 03:40:17;;;;;;;5.35;2.65;;;;;;;-3.47;100.00;99117.72;5114415;28;20337;-69
2023/12/11 03:42:43;;;;;;;4.65;2.63;;;;;;;-3.30;100.00;99122.72;5119669;28;20117;-72
2023/12/11 03:45:09;;;;;;;2.47;2.13;;;;;;;-3.65;100.00;99116.44;5117868;28;20082;-64
2023/12/11 03:47:36;;;;;;;4.85;2.97;;;;;;;-3.34;100.00;99119.00;5120195;28;20074;-66
2023/12/11 03:50:02;;;;;;;4.85;2.92;;;;;;;-3.42;100.00;99108.88;5117999;28;20344;-74
2023/12/11 03:52:29;;;;;;;5.47;2.97;;;;;;;-3.59;100.00;99106.50;5120171;28;20055;-69
2023/12/11 03:54:56;;;;;;;4.38;2.35;;;;;;;-3.69;100.00;99107.34;5117823;28;20125;-69
2023/12/11 03:57:22;;;;;;;4.05;2.30;;;;;;;-3.74;100.00;99112.69;5123269;28;20055;-69
2023/12/11 03:59:48;;;;;;;4.43;2.65;;;;;;;-3.36;100.00;99116.59;5119605;28;20420;-69
2023/12/11 04:02:15;;;;;;;4.53;2.90;;;;;;;-3.54;100.00;99103.78;5120063;28;20348;-67
2023/12/11 04:04:41;;;;;;;5.20;2.88;;;;;;;-3.45;100.00;99104.03;5117445;28;20442;-73
2023/12/11 04:07:08;;;;;;;6.70;3.55;;;;;;;-3.69;100.00;99093.94;5118414;28;20429;-68
2023/12/11 04:09:35;;;;;;;6.97;3.65;;;;;;;-3.49;100.00;99098.44;5119288;28;20404;-71
2023/12/11 04:12:02;;;;;;;7.75;3.67;;;;;;;-3.60;100.00;99103.03;5120338;28;20078;-63
2023/12/11 04:14:28;;;;;;;7.65;3.22;;;;;;;-3.70;100.00;99100.34;5122222;28;20108;-66
2023/12/11 04:16:54;;;;;;;5.32;3.45;;;;;;;-3.58;100.00;99098.19;5120114;28;20122;-74
2023/12/11 04:19:21;;;;;;;6.20;2.60;;;;;;;-3.56;100.00;99098.72;5122318;28;20055;-65
2023/12/11 04:21:47;;;;;;;5.32;3.22;;;;;;;-3.72;100.00;99094.50;5119709;28;20109;-69
2023/12/11 04:24:13;;;;;;;7.22;3.28;;;;;;;-3.62;100.00;99096.34;5122818;28;20047;-63
2023/12/11 04:26:40;;;;;;;5.75;3.63;;;;;;;-3.68;100.00;99102.78;5120477;28;20457;-65
2023/12/11 04:29:07;;;;;;;6.03;3.22;;;;;;;-3.43;100.00;99102.72;5122793;28;20052;-70
2023/12/11 04:31:33;;;;;;;12.50;3.33;;;;;;;-3.50;100.00;99096.00;5120080;28;20443;-64
2023/12/11 04:34:00;;;;;;;7.18;3.20;;;;;;;-3.52;100.00;99096.31;5122201;28;20060;-64
2023/12/11 04:36:27;;;;;;;4.63;2.85;;;;;;;-3.56;100.00;99089.88;5121078;28;20087;-74
2023/12/11 04:38:53;;;;;;;9.88;3.75;;;;;;;-3.42;100.00;99087.41;5103886;28;20066;-65
2023/12/11 04:41:19;;;;;;;6.97;3.85;;;;;;;-3.22;100.00;99089.22;5119689;28;20409;-66
2023/12/11 04:43:46;;;;;;;6.10;3.47;;;;;;;-3.10;100.00;99090.47;5116860;28;20188;-74
2023/12/11 04:46:13;;;;;;;6.68;3.38;;;;;;;-3.31;100.00;99068.31;5119178;28;20065;-64
2023/12/11 04:48:39;;;;;;;7.80;4.13;;;;;;;-2.85;100.00;99068.06;5116681;28;20062;-73
2023/12/11 04:51:06;;;;;;;6.55;4.03;;;;;;;-2.63;100.00;99062.28;5119219;28;20052;-73
2023/12/11 04:53:32;;;;;;;6.68;3.97;;;;;;;-3.18;100.00;99026.69;5115595;28;20063;-65
2023/12/11 04:55:58;;;;;;;12.40;4.72;;;;;;;-3.40;100.00;99021.75;5119147;28;20055;-68
2023/12/11 04:58:25;;;;;;;5.38;3.17;;;;;;;-3.52;100.00;99040.03;5116637;28;20311;-73
2023/12/11 05:00:52;;;;;;;8.10;3.30;;;;;;;-3.18;100.00;99037.41;5119094;28;20401;-72
2023/12/11 05:03:18;;;;;;;4.70;3.22;;;;;;;-3.20;100.00;99044.97;5116599;28;20051;-64
2023/12/11 05:05:45;;;;;;;5.38;3.05;;;;;;;-3.14;100.00;99035.78;5116433;28;20055;-73
2023/12/11 05:08:12;;;;;;;8.73;3.78;;;;;;;-3.54;100.00;99036.81;5119107;28;20070;-70
2023/12/11 05:10:38;;;;;;;5.55;3.00;;;;;;;-3.33;100.00;99043.69;5116632;28;20333;-65
2023/12/11 05:13:05;;;;;;;5.57;3.08;;;;;;;-3.29;100.00;99035.09;5118630;28;20055;-67
2023/12/11 05:15:31;;;;;;;5.00;3.08;;;;;;;-3.43;100.00;99034.88;5116552;28;20059;-73
2023/12/11 05:17:58;;;;;;;7.25;3.38;;;;;;;-3.12;100.00;99030.94;5118718;28;20059;-63
2023/12/11 05:20:25;;;;;;;15.55;2.47;;;;;;;-3.40;100.00;99035.16;5116313;28;20097;-69
2023/12/11 05:22:51;;;;;;;8.25;3.45;;;;;;;-3.46;100.00;99024.72;5118550;28;20371;-69
2023/12/11 05:25:17;;;;;;;9.38;3.85;;;;;;;-3.34;100.00;99042.06;5115821;28;20078;-66
2023/12/11 05:27:44;;;;;;;5.35;3.05;;;;;;;-3.23;100.00;99031.28;5118220;28;20051;-63
2023/12/11 05:30:11;;;;;;;9.30;2.28;;;;;;;-3.28;100.00;99031.31;5115622;28;20052;-68
2023/12/11 05:32:38;;;;;;;5.00;2.97;;;;;;;-3.22;100.00;99040.94;5117075;28;20067;-61
2023/12/11 05:35:07;;;;;;;11.95;3.58;;;;;;;-3.38;100.00;99022.25;5117514;28;20059;-62
2023/12/11 05:37:33;;;;;;;4.72;2.88;;;;;;;-3.33;100.00;99022.25;5115224;28;20063;-60
2023/12/11 05:39:59;;;;;;;6.60;3.70;;;;;;;-3.48;100.00;99019.63;5117474;28;20424;-67
2023/12/11 05:42:26;;;;;;;7.45;2.70;;;;;;;-3.51;100.00;99028.22;5115160;28;20417;-68
2023/12/11 05:44:52;;;;;;;5.03;2.50;;;;;;;-3.35;100.00;99043.16;5117622;28;20470;-64
2023/12/11 05:47:18;;;;;;;9.25;4.78;;;;;;;-3.20;100.00;99036.91;5115432;28;20440;-64
2023/12/11 05:49:45;;;;;;;6.78;4.45;;;;;;;-3.20;100.00;99041.44;5117980;28;20047;-64
2023/12/11 05:52:12;;;;;;;5.00;2.88;;;;;;;-3.20;100.00;99038.78;5115341;28;20055;-61
2023/12/11 05:54:38;;;;;;;8.63;2.60;;;;;;;-3.07;100.00;99043.50;5117750;28;20404;-68
2023/12/11 05:57:05;;;;;;;8.18;3.50;;;;;;;-3.39;100.00;99028.69;5115328;28;20145;-67
2023/12/11 05:59:31;;;;;;;9.73;6.13;;;;;;;-3.13;100.00;99028.56;5117677;28;20063;-68
2023/12/11 06:01:58;;;;;;;17.55;6.78;;;;;;;-2.86;100.00;99030.78;5115819;28;20145;-62
2023/12/11 06:04:24;;;;;;;5.90;3.75;;;;;;;-3.38;100.00;99003.50;5115215;28;20052;-67
2023/12/11 06:06:50;;;;;;;14.88;6.50;;;;;;;-3.34;100.00;99015.25;5117408;28;20071;-68
2023/12/11 06:09:18;;;;;;;69.28;27.83;;;;;;;-3.22;100.00;99017.59;5115581;28;20055;-67
2023/12/11 06:11:44;;;;;;;19.13;7.93;;;;;;;-3.43;100.00;99016.94;5117847;28;20056;-75
2023/12/11 06:14:10;;;;;;;25.92;4.93;;;;;;;-3.31;100.00;99009.34;5115120;28;20055;-71
2023/12/11 06:16:37;;;;;;;124.00;40.58;;;;;;;-3.34;100.00;99015.25;5117460;28;20063;-66
2023/12/11 06:19:03;;;;;;;37.85;14.38;;;;;;;-3.44;100.00;99009.16;5114947;28;20413;-64
2023/12/11 06:21:30;;;;;;;13.55;5.15;;;;;;;-3.60;100.00;99006.56;5117615;28;20051;-69
2023/12/11 06:23:57;;;;;;;7.80;3.55;;;;;;;-3.39;100.00;98996.53;5115118;28;20083;-67
2023/12/11 06:26:32;;;;;;;17.40;7.10;;;;;;;-3.28;100.00;98994.59;5117704;28;20051;-64
2023/12/11 06:28:59;;;;;;;7.28;3.67;;;;;;;-3.15;100.00;99015.41;5117273;28;20470;-65
2023/12/11 06:31:26;;;;;;;5.55;3.83;;;;;;;-3.48;100.00;99002.75;5098096;28;20076;-64
2023/12/11 06:33:53;;;;;;;12.90;3.85;;;;;;;-3.31;100.00;99003.97;5117201;28;20059;-70
2023/12/11 06:36:19;;;;;;;11.15;4.00;;;;;;;-3.41;100.00;99001.34;5115002;28;20311;-70
2023/12/11 06:38:46;;;;;;;2.67;2.47;;;;;;;-3.46;100.00;98987.22;5117184;28;20444;-67
2023/12/11 06:41:12;;;;;;;4.38;3.35;;;;;;;-3.22;100.00;98990.81;5114903;28;20047;-61
2023/12/11 06:43:39;;;;;;;6.25;4.00;;;;;;;-3.29;100.00;98981.47;5116555;28;20108;-67
2023/12/11 06:46:06;;;;;;;5.82;3.42;;;;;;;-2.93;100.00;98987.34;5114486;28;20091;-68
2023/12/11 06:48:33;;;;;;;6.80;3.08;;;;;;;-3.08;100.00;98983.72;5117012;28;20070;-67
2023/12/11 06:50:59;;;;;;;8.52;3.85;;;;;;;-2.81;100.00;98987.00;5114407;28;20104;-65
2023/12/11 06:53:25;;;;;;;3.88;2.72;;;;;;;-3.10;100.00;98987.75;5117040;28;20055;-64
2023/12/11 06:55:52;;;;;;;9.48;3.63;;;;;;;-3.16;100.00;98996.94;5114491;28;20310;-64
2023/12/11 06:58:18;;;;;;;7.70;3.95;;;;;;;-2.79;100.00;98984.84;5114847;28;20370;-69
2023/12/11 07:00:45;;;;;;;6.93;3.95;;;;;;;-3.09;100.00;98986.69;5116827;28;20063;-64
2023/12/11 07:03:11;;;;;;;6.45;3.38;;;;;;;-2.93;100.00;98982.81;5114345;28;20063;-75
2023/12/11 07:05:41;;;;;;;24.92;9.43;;;;;;;-3.12;100.00;98996.09;5116785;28;20063;-70
2023/12/11 07:08:07;;;;;;;1.95;1.48;;;;;;;-3.08;100.00;98980.25;5114465;28;20048;-71
2023/12/11 07:10:34;;;;;;;22.88;8.30;;;;;;;-3.09;100.00;98975.97;5116597;28;20181;-66
2023/12/11 07:13:01;;;;;;;28.25;9.52;;;;;;;-2.88;100.00;98981.97;5114401;28;20066;-66
2023/12/11 07:15:27;;;;;;;16.48;4.32;;;;;;;-2.96;100.00;98966.50;5115980;28;20074;-72
2023/12/11 07:17:55;;;;;;;13.07;4.45;;;;;;;-3.08;100.00;98969.50;5114053;28;20063;-71
2023/12/11 07:20:22;;;;;;;2.35;1.73;;;;;;;-3.29;100.00;98965.38;5116989;28;20052;-69
2023/12/11 07:22:49;;;;;;;46.30;13.90;;;;;;;-3.13;100.00;98965.00;5114170;28;20350;-72
2023/12/11 07:25:16;;;;;;;5.55;3.17;;;;;;;-3.11;100.00;98959.34;5114093;28;20047;-70
2023/12/11 07:27:42;;;;;;;5.75;3.00;;;;;;;-3.01;100.00;98964.63;5099994;28;20055;-69
2023/12/11 07:30:10;;;;;;;8.77;4.20;;;;;;;-2.99;100.00;98959.78;5114478;28;20089;-67
2023/12/11 07:32:37;;;;;;;6.80;3.67;;;;;;;-3.04;100.00;98959.81;5116376;28;20063;-72
2023/12/11 07:35:06;;;;;;;9.35;4.57;;;;;;;-2.98;100.00;98957.91;5114457;28;20341;-66
2023/12/11 07:37:33;;;;;;;7.13;4.00;;;;;;;-2.66;100.00;98965.44;5116292;28;20425;-70
2023/12/11 07:39:59;;;;;;;9.50;2.97;;;;;;;-2.93;100.00;98957.84;5114031;28;20077;-66
2023/12/11 07:42:26;;;;;;;4.78;3.05;;;;;;;-2.91;100.00;98953.81;5117044;28;20056;-65
2023/12/11 07:44:52;;;;;;;9.10;3.70;;;;;;;-2.94;100.00;98954.38;5113631;28;20058;-67
2023/12/11 07:47:18;;;;;;;6.82;3.72;;;;;;;-2.85;100.00;98952.69;5116562;28;20052;-71
2023/12/11 07:49:45;;;;;;;7.93;3.00;;;;;;;-3.12;100.00;98958.56;5113886;28;20051;-65
2023/12/11 07:52:12;;;;;;;6.50;4.13;;;;;;;-3.11;100.00;98959.34;5112538;28;20060;-65
2023/12/11 07:54:39;;;;;;;6.03;3.72;;;;;;;-2.95;100.00;98957.34;5115730;28;20051;-72
2023/12/11 07:57:05;;;;;;;9.70;3.25;;;;;;;-3.01;100.00;98958.47;5114065;28;20056;-65
2023/12/11 07:59:32;;;;;;;7.22;3.78;;;;;;;-3.03;100.00;98949.88;5115866;28;20052;-72
2023/12/11 08:01:58;;;;;;;8.07;3.92;;;;;;;-3.03;100.00;98953.41;5113944;28;21115;-61
2023/12/11 08:04:25;;;;;;;5.95;3.50;;;;;;;-2.75;100.00;98951.00;5115841;28;20087;-69
2023/12/11 08:06:51;;;;;;;14.40;5.13;;;;;;;-2.28;100.00;98955.63;5097829;28;20394;-73
2023/12/11 08:09:18;;;;;;;10.98;4.35;;;;;;;-2.29;100.00;98947.88;5115917;28;20062;-62
2023/12/11 08:15:08;;;;;;;7.57;3.85;;;;;;;-2.37;100.00;98923.25;5115332;28;20049;-66
2023/12/11 08:17:34;;;;;;;10.73;5.35;;;;;;;-1.91;100.00;98925.38;5113607;28;20063;-70
2023/12/11 08:20:00;;;;;;;6.97;4.72;;;;;;;-1.76;100.00;98900.19;5116079;28;20055;-74
2023/12/11 08:22:27;;;;;;;4.32;2.42;;;;;;;-0.49;100.00;98896.53;5113831;28;20060;-64
2023/12/11 08:24:54;;;;;;;7.65;3.25;;;;;;;-0.07;100.00;98805.69;5115740;28;20062;-60
2023/12/11 08:27:21;;;;;;;7.65;4.65;;;;;;;-1.30;100.00;98629.78;5114248;28;20056;-66
2023/12/11 08:29:47;;;;;;;13.65;4.75;;;;;;;-0.81;100.00;98671.28;5119270;28;20095;-69
2023/12/11 08:32:13;;;;;;;11.85;5.75;;;;;;;-1.31;100.00;98615.53;5116796;28;20047;-62
2023/12/11 08:34:40;;;;;;;16.15;4.55;;;;;;;-1.50;100.00;98590.66;5119164;28;20417;-61
2023/12/11 08:37:06;;;;;;;14.20;5.20;;;;;;;-1.56;100.00;98595.34;5116571;28;20488;-64
2023/12/11 08:39:33;;;;;;;5.35;3.40;;;;;;;-1.97;100.00;98603.34;5116480;28;20400;-66
2023/12/11 08:42:00;;;;;;;8.05;4.82;;;;;;;-1.60;100.00;98671.50;5118451;28;20059;-60
2023/12/11 08:44:26;;;;;;;7.75;3.88;;;;;;;-1.88;100.00;98668.75;5116321;28;20067;-61
2023/12/11 08:46:53;;;;;;;13.23;4.25;;;;;;;-1.91;100.00;98690.84;5118691;28;20055;-65
2023/12/11 08:49:19;;;;;;;10.48;4.93;;;;;;;-1.91;100.00;98718.50;5116335;28;20052;-62
2023/12/11 08:51:46;;;;;;;7.13;4.18;;;;;;;-1.80;100.00;98719.16;5118748;28;20069;-60
2023/12/11 08:54:13;;;;;;;10.25;4.95;;;;;;;-2.02;100.00;98706.31;5116429;28;20421;-62
2023/12/11 08:56:39;;;;;;;8.63;5.38;;;;;;;-1.53;100.00;98723.78;5118885;28;20078;-64
2023/12/11 08:59:06;;;;;;;8.10;4.40;;;;;;;-1.67;100.00;98704.13;5116320;28;20052;-58
2023/12/11 09:01:34;;;;;;;8.52;4.85;;;;;;;-2.01;100.00;98674.88;5118515;28;20048;-59
2023/12/11 09:04:01;;;;;;;5.57;3.40;;;;;;;-1.77;100.00;98664.78;5115984;28;20101;-64
2023/12/11 09:06:27;;;;;;;11.95;5.95;;;;;;;-1.16;100.00;98672.84;5117339;28;20422;-65
2023/12/11 09:08:53;;;;;;;8.25;4.68;;;;;;;-1.93;100.00;98613.22;5117745;28;20062;-63
2023/12/11 09:11:20;;;;;;;4.78;2.80;;;;;;;-2.04;100.00;98616.38;5116086;28;20060;-65
2023/12/11 09:13:46;;;;;;;8.35;3.75;;;;;;;-1.83;100.00;98635.63;5118445;28;20129;-62
2023/12/11 09:16:13;;;;;;;10.25;5.13;;;;;;;-1.63;100.00;98661.31;5116323;28;20056;-59
2023/12/11 09:18:40;;;;;;;8.18;4.63;;;;;;;-1.80;100.00;98640.41;5118387;28;20052;-65
2023/12/11 09:21:06;;;;;;;8.95;4.80;;;;;;;-1.80;100.00;98635.03;5116011;28;20062;-63
2023/12/11 09:23:33;;;;;;;9.23;4.82;;;;;;;-1.59;100.00;98638.16;5117923;28;20108;-63
2023/12/11 09:26:00;;;;;;;5.78;3.95;;;;;;;-1.62;100.00;98601.91;5115872;28;20429;-58
2023/12/11 09:28:27;;;;;;;6.20;4.03;;;;;;;-1.44;100.00;98538.38;5118264;28;20055;-61
2023/12/11 09:30:53;;;;;;;7.63;4.40;;;;;;;-1.05;100.00;98551.25;5115868;28;20059;-68
2023/12/11 09:33:20;;;;;;;5.50;3.38;;;;;;;-1.67;100.00;98481.88;5117729;28;20341;-65
2023/12/11 09:35:46;;;;;;;3.55;2.67;;;;;;;-1.41;100.00;98524.31;5116013;28;20079;-64
2023/12/11 09:38:13;;;;;;;8.75;4.60;;;;;;;-1.35;100.00;98531.19;5115514;28;20048;-68
2023/12/11 09:40:39;;;;;;;18.10;9.20;;;;;;;-1.55;100.00;98486.72;5117503;28;20337;-67
2023/12/11 09:43:06;;;;;;;9.15;3.67;;;;;;;-1.64;100.00;98482.34;5115693;28;20055;-63
2023/12/11 09:45:33;;;;;;;7.25;4.70;;;;;;;-1.28;100.00;98520.81;5117864;28;20055;-67
2023/12/11 09:47:59;;;;;;;9.10;4.75;;;;;;;-1.29;100.00;98510.38;5115556;28;20056;-67
2023/12/11 09:50:27;;;;;;;8.90;5.22;;;;;;;-1.52;100.00;98504.94;5117823;28;20051;-67
2023/12/11 09:52:56;;;;;;;6.25;3.95;;;;;;;-1.57;100.00;98505.03;5115354;28;20062;-65
2023/12/11 09:55:22;;;;;;;3.55;3.15;;;;;;;-1.93;100.00;98521.91;5117994;28;20067;-67
2023/12/11 09:57:50;;;;;;;13.10;5.93;;;;;;;-1.49;100.00;98563.47;5115266;28;20052;-63
2023/12/11 10:00:17;;;;;;;12.20;5.13;;;;;;;-1.56;100.00;98603.41;5118018;28;20078;-64
2023/12/11 10:02:47;;;;;;;10.18;6.10;;;;;;;-1.28;100.00;98609.56;5115231;28;20176;-67
2023/12/11 10:05:23;;;;;;;12.70;5.55;;;;;;;-1.05;100.00;98594.28;5115049;28;20051;-62
2023/12/11 10:07:51;;;;;;;5.43;3.47;;;;;;;-1.63;100.00;98497.38;5117242;28;20056;-68
2023/12/11 10:10:23;;;;;;;5.97;3.80;;;;;;;-1.61;100.00;98506.72;5115243;28;20052;-69
2023/12/11 10:12:49;;;;;;;7.28;4.88;;;;;;;-1.58;100.00;98529.53;5117496;28;20059;-63
2023/12/11 10:15:20;;;;;;;8.48;4.55;;;;;;;-1.67;100.00;98541.00;5115081;28;20425;-65
2023/12/11 10:17:46;;;;;;;11.25;5.45;;;;;;;-1.44;100.00;98549.91;5117490;28;20048;-68
2023/12/11 10:20:17;;;;;;;12.45;6.80;;;;;;;-1.37;100.00;98535.28;5115102;28;20494;-67
2023/12/11 10:22:43;;;;;;;8.18;4.63;;;;;;;-1.60;100.00;98492.22;5117636;28;20051;-66
2023/12/11 10:25:12;;;;;;;10.35;4.55;;;;;;;-1.32;100.00;98503.69;5114878;28;20440;-63
2023/12/11 10:27:39;;;;;;;7.65;4.03;;;;;;;-1.37;100.00;98494.94;5114869;28;20142;-65
2023/12/11 10:30:11;;;;;;;11.15;5.20;;;;;;;-1.51;100.00;98509.22;5117011;28;20062;-63
2023/12/11 10:32:37;;;;;;;8.95;4.35;;;;;;;-1.79;100.00;98486.97;5114944;28;20082;-71
2023/12/11 10:35:05;;;;;;;6.10;3.70;;;;;;;-1.77;100.00;98516.19;5117220;28;20060;-62
2023/12/11 10:37:34;;;;;;;8.65;4.47;;;;;;;-1.77;100.00;98524.25;5114969;28;20104;-71
2023/12/11 10:40:02;;;;;;;8.25;3.70;;;;;;;-1.79;100.00;98537.22;5099306;28;20062;-64
2023/12/11 10:42:29;;;;;;;6.88;3.90;;;;;;;-1.82;100.00;98559.31;5114928;28;20100;-67
2023/12/11 10:44:56;;;;;;;10.70;4.78;;;;;;;-1.42;100.00;98582.69;5117168;28;20052;-71
2023/12/11 10:47:23;;;;;;;7.72;4.50;;;;;;;-1.62;100.00;98572.34;5114731;28;20055;-68
2023/12/11 10:49:50;;;;;;;7.90;4.75;;;;;;;-1.77;100.00;98584.16;5116860;28;20282;-61
2023/12/11 10:52:16;;;;;;;6.35;3.90;;;;;;;-1.76;100.00;98598.44;5115803;28;20420;-67
2023/12/11 10:54:43;;;;;;;13.68;5.30;;;;;;;-1.27;100.00;98610.34;5114869;28;20098;-64
2023/12/11 10:57:13;;;;;;;9.15;5.47;;;;;;;-1.16;100.00;98541.81;5116604;28;20051;-66
2023/12/11 10:59:40;;;;;;;8.05;4.75;;;;;;;-1.48;100.00;98530.13;5114623;28;20417;-64
2023/12/11 11:02:08;;;;;;;5.22;3.78;;;;;;;-1.69;100.00;98518.22;5116682;28;20067;-67
2023/12/11 11:04:39;;;;;;;5.15;3.17;;;;;;;-1.60;100.00;98543.28;5114301;28;20051;-64
2023/12/11 11:07:11;;;;;;;9.98;4.32;;;;;;;-1.74;100.00;98547.84;5116475;28;20047;-71
2023/12/11 11:09:49;;;;;;;11.68;7.32;;;;;;;-1.65;100.00;98559.50;5113651;28;20083;-67
2023/12/11 11:12:27;;;;;;;24.23;12.93;;;;;;;-1.62;100.00;98556.22;5116915;28;20058;-67
2023/12/11 11:14:54;;;;;;;14.23;7.43;;;;;;;-1.38;100.00;98547.13;5116536;28;20059;-65
2023/12/11 11:17:20;;;;;;;9.80;4.43;;;;;;;-1.54;100.00;98552.81;5114101;28;20410;-69
2023/12/11 11:20:12;;;;;;;13.95;7.13;;;;;;;-1.22;100.00;98551.09;5116447;28;20056;-66
2023/12/11 11:22:39;;;;;;;12.02;5.57;;;;;;;-1.66;100.00;98545.28;5114263;28;20051;-64
2023/12/11 11:25:30;;;;;;;12.68;5.63;;;;;;;-1.19;100.00;98537.03;5116456;28;20409;-63